Agua Santa, Brazil
Current Conditions -  °F | °C
As of 9:00 AM on Saturday 22 Nov 2014 (Local Time) from SBPF Reporting Station
Overcast Overcast  
Wind Chill: 64°   Ceiling: 5000
Heat Index: 64°   Visibility: 6mi
Dew Point: 63°   Wind: 13mph
Humidity: 94%   Direction: 290°WNW
Pressure: 29.94"   Gusts: NA
Location:  28.18°S, 52.03°W
Report Text: SBPF 221100Z 29011KT 9999 FEW003 SCT010 OVC050 18/17 Q1014
Loading
Personal Weather Stations






























Interactive Weather Map New forecast layout! Learn more

10-Day Weather Forecast

Advertisements
Track Severe Weather on mobile